createdAt,value
2017-10-16T00:01:05.251Z,100772.00
2017-10-16T00:04:06.775Z,100773.27
2017-10-16T00:07:08.307Z,100773.67
2017-10-16T00:10:10.583Z,100769.92
2017-10-16T00:13:12.127Z,100767.59
2017-10-16T00:19:22.779Z,100769.16
2017-10-16T00:22:24.304Z,100763.75
2017-10-16T00:25:25.814Z,100762.75
2017-10-16T00:28:28.067Z,100756.68
2017-10-16T00:31:30.344Z,100761.79
2017-10-16T00:34:31.909Z,100764.28
2017-10-16T00:37:34.141Z,100768.68
2017-10-16T00:40:35.656Z,100769.60
2017-10-16T00:43:37.174Z,100775.56
2017-10-16T00:46:38.685Z,100769.98
2017-10-16T00:52:48.475Z,100771.20
2017-10-16T00:55:50.036Z,100771.89
2017-10-16T00:58:51.580Z,100775.55
2017-10-16T01:01:53.133Z,100773.36
2017-10-16T01:04:54.660Z,100771.82
2017-10-16T01:07:56.232Z,100777.26
2017-10-16T01:10:57.753Z,100769.20
2017-10-16T01:13:59.347Z,100760.19
2017-10-16T01:17:00.882Z,100763.20
2017-10-16T01:20:02.389Z,100749.44
2017-10-16T01:23:04.094Z,100757.22
2017-10-16T01:26:05.592Z,100764.73
2017-10-16T01:29:07.211Z,100761.02
2017-10-16T01:32:08.757Z,100758.44
2017-10-16T01:35:10.372Z,100754.91
2017-10-16T01:38:11.933Z,100751.38
2017-10-16T01:41:14.184Z,100751.15
2017-10-16T01:44:15.860Z,100747.55
2017-10-16T01:47:17.395Z,100752.92
2017-10-16T01:50:18.949Z,100751.03
2017-10-16T01:53:20.496Z,100740.16
2017-10-16T01:56:22.212Z,100748.45
2017-10-16T01:59:23.740Z,100739.21
2017-10-16T02:02:26.001Z,100743.15
2017-10-16T02:05:27.641Z,100738.63
2017-10-16T02:08:29.216Z,100734.83
2017-10-16T02:11:31.504Z,100728.60
2017-10-16T02:14:33.717Z,100730.52
2017-10-16T02:17:35.257Z,100735.95
2017-10-16T02:20:36.753Z,100733.95
2017-10-16T02:23:38.310Z,100730.75
2017-10-16T02:26:39.838Z,100729.77
2017-10-16T02:29:41.364Z,100730.58
2017-10-16T02:32:42.928Z,100731.14
2017-10-16T02:35:44.428Z,100727.18
2017-10-16T02:38:46.016Z,100722.66
2017-10-16T02:41:48.231Z,100714.21
2017-10-16T02:44:49.818Z,100717.20
2017-10-16T02:47:52.084Z,100714.19
2017-10-16T02:50:53.633Z,100722.84
2017-10-16T02:53:55.157Z,100722.41
2017-10-16T02:56:56.716Z,100717.83
2017-10-16T02:59:58.296Z,100722.09
2017-10-16T03:02:59.825Z,100723.84
2017-10-16T03:06:01.344Z,100707.55
2017-10-16T03:09:03.579Z,100723.62
2017-10-16T03:12:05.102Z,100726.27
2017-10-16T03:15:06.597Z,100731.78
2017-10-16T03:18:08.905Z,100732.20
2017-10-16T03:21:10.379Z,100725.30
2017-10-16T03:24:11.906Z,100728.98
2017-10-16T03:27:14.167Z,100720.03
2017-10-16T03:30:16.395Z,100716.88
2017-10-16T03:33:17.944Z,100713.58
2017-10-16T03:36:19.480Z,100712.70
2017-10-16T03:39:21.027Z,100726.27
2017-10-16T03:42:22.510Z,100720.07
2017-10-16T03:45:24.000Z,100717.16
2017-10-16T03:48:26.202Z,100713.15
2017-10-16T03:51:27.700Z,100721.84
2017-10-16T03:54:29.247Z,100728.41
2017-10-16T03:57:30.718Z,100725.92
2017-10-16T04:00:33.052Z,100726.89
2017-10-16T04:03:34.593Z,100730.27
2017-10-16T04:06:36.134Z,100729.78
2017-10-16T04:09:37.622Z,100729.25
2017-10-16T04:12:39.135Z,100723.15
2017-10-16T04:15:40.702Z,100730.59
2017-10-16T04:18:42.211Z,100727.03
2017-10-16T04:21:43.747Z,100720.15
2017-10-16T04:24:45.244Z,100716.30
2017-10-16T04:27:47.500Z,100714.15
2017-10-16T04:30:49.729Z,100705.62
2017-10-16T04:33:51.303Z,100706.59
2017-10-16T04:36:52.822Z,100713.12
2017-10-16T04:39:54.367Z,100714.89
2017-10-16T04:42:55.933Z,100713.96
2017-10-16T04:45:57.479Z,100720.70
2017-10-16T04:48:59.011Z,100726.59
2017-10-16T04:52:01.221Z,100712.28
2017-10-16T04:55:02.795Z,100724.95
2017-10-16T04:58:04.277Z,100706.75
2017-10-16T05:01:05.965Z,100707.43
2017-10-16T05:04:07.564Z,100706.97
2017-10-16T05:07:09.040Z,100693.79
2017-10-16T05:10:10.613Z,100703.02
2017-10-16T05:13:12.835Z,100695.66
2017-10-16T05:16:14.359Z,100690.14
2017-10-16T05:19:15.883Z,100694.72
2017-10-16T05:22:17.409Z,100696.67
2017-10-16T05:25:18.977Z,100696.49
2017-10-16T05:28:21.224Z,100691.89
2017-10-16T05:31:22.739Z,100692.09
2017-10-16T05:34:24.956Z,100698.08
2017-10-16T05:37:26.530Z,100674.78
2017-10-16T05:40:28.007Z,100679.39
2017-10-16T05:43:30.288Z,100674.36
2017-10-16T05:46:32.873Z,100663.47
2017-10-16T05:49:34.419Z,100668.50
2017-10-16T05:52:36.009Z,100669.95
2017-10-16T05:55:37.493Z,100676.53
2017-10-16T05:58:39.120Z,100669.45
2017-10-16T06:01:40.604Z,100666.08
2017-10-16T06:04:42.184Z,100667.95
2017-10-16T06:07:44.485Z,100660.48
2017-10-16T06:10:46.106Z,100679.67
2017-10-16T06:13:47.709Z,100669.83
2017-10-16T06:16:49.257Z,100662.69
2017-10-16T06:19:50.890Z,100670.21
2017-10-16T06:22:52.498Z,100668.96
2017-10-16T06:25:53.972Z,100670.63
2017-10-16T06:28:55.496Z,100674.55
2017-10-16T06:31:57.064Z,100663.06
2017-10-16T06:34:58.666Z,100656.11
2017-10-16T06:38:00.292Z,100659.77
2017-10-16T06:41:01.825Z,100659.41
2017-10-16T06:44:03.267Z,100657.69
2017-10-16T06:47:04.813Z,100656.29
2017-10-16T06:50:06.268Z,100671.87
2017-10-16T06:53:07.735Z,100673.76
2017-10-16T06:56:09.171Z,100660.20
2017-10-16T06:59:10.667Z,100659.33
2017-10-16T07:02:12.257Z,100660.19
2017-10-16T07:08:22.784Z,100649.14
2017-10-16T07:11:24.208Z,100661.09
2017-10-16T07:14:25.744Z,100662.09
2017-10-16T07:17:27.961Z,100655.31
2017-10-16T07:20:29.496Z,100667.06
2017-10-16T07:23:30.986Z,100666.28
2017-10-16T07:26:32.570Z,100688.04
2017-10-16T07:29:34.788Z,100673.75
2017-10-16T07:32:36.241Z,100673.69
2017-10-16T07:35:37.784Z,100680.43
2017-10-16T07:38:39.283Z,100674.03
2017-10-16T07:41:40.779Z,100684.89
2017-10-16T07:44:42.240Z,100695.65
2017-10-16T07:47:43.746Z,100698.40
2017-10-16T07:50:45.220Z,100714.67
2017-10-16T07:53:47.417Z,100731.84
2017-10-16T07:56:48.839Z,100744.12
2017-10-16T07:59:50.302Z,100763.19
2017-10-16T08:02:52.515Z,100760.52
2017-10-16T08:05:53.924Z,100757.56
2017-10-16T08:08:56.207Z,100760.89
2017-10-16T08:11:57.680Z,100765.16
2017-10-16T08:14:59.365Z,100760.31
2017-10-16T08:18:01.624Z,100769.61
2017-10-16T08:21:03.270Z,100762.12
2017-10-16T08:24:04.791Z,100763.64
2017-10-16T08:27:06.991Z,100767.15
2017-10-16T08:30:08.570Z,100765.19
2017-10-16T08:33:10.067Z,100770.38
2017-10-16T08:36:12.325Z,100784.20
2017-10-16T08:39:14.587Z,100775.38
2017-10-16T08:42:16.099Z,100774.95
2017-10-16T08:45:17.563Z,100783.19
2017-10-16T08:48:19.087Z,100781.22
2017-10-16T08:51:20.627Z,100778.89
2017-10-16T08:54:22.118Z,100793.10
2017-10-16T08:57:23.680Z,100803.30
2017-10-16T09:00:29.155Z,100798.88
2017-10-16T09:03:30.712Z,100807.55
2017-10-16T09:06:32.208Z,100811.78
2017-10-16T09:09:33.734Z,100799.95
2017-10-16T09:15:44.280Z,100813.27
2017-10-16T09:18:45.819Z,100818.16
2017-10-16T09:21:47.315Z,100799.77
2017-10-16T09:24:48.876Z,100817.48
2017-10-16T09:27:51.123Z,100829.09
2017-10-16T09:30:52.681Z,100817.34
2017-10-16T09:33:54.193Z,100813.86
2017-10-16T09:36:55.819Z,100822.62
2017-10-16T09:39:58.126Z,100820.88
2017-10-16T09:42:59.631Z,100811.52
2017-10-16T09:46:01.264Z,100819.54
2017-10-16T09:49:02.761Z,100812.78
2017-10-16T09:52:04.329Z,100817.52
2017-10-16T09:55:05.811Z,100814.90
2017-10-16T09:58:08.044Z,100816.95
2017-10-16T10:01:09.570Z,100821.34
2017-10-16T10:04:11.075Z,100816.67
2017-10-16T10:07:12.666Z,100817.42
2017-10-16T10:10:14.212Z,100818.92
2017-10-16T10:13:15.767Z,100813.84
2017-10-16T10:16:17.343Z,100815.39
2017-10-16T10:19:18.880Z,100811.53
2017-10-16T10:22:21.120Z,100818.20
2017-10-16T10:25:22.600Z,100810.51
2017-10-16T10:28:24.155Z,100810.40
2017-10-16T10:31:26.403Z,100815.75
2017-10-16T10:34:27.884Z,100819.39
2017-10-16T10:37:29.364Z,100818.31
2017-10-16T10:40:31.627Z,100815.53
2017-10-16T10:43:33.110Z,100819.55
2017-10-16T10:46:35.369Z,100822.45
2017-10-16T10:49:37.668Z,100819.75
2017-10-16T10:52:39.223Z,100825.78
2017-10-16T10:55:40.737Z,100826.09
2017-10-16T10:58:42.731Z,100828.27
2017-10-16T11:04:52.535Z,100817.09
2017-10-16T11:07:54.021Z,100813.16
2017-10-16T11:10:55.748Z,100812.26
2017-10-16T11:13:57.591Z,100813.61
2017-10-16T11:16:59.493Z,100808.23
2017-10-16T11:20:01.817Z,100806.69
2017-10-16T11:23:03.435Z,100797.06
2017-10-16T11:26:05.710Z,100805.94
2017-10-16T11:29:08.049Z,100799.69
2017-10-16T11:32:09.596Z,100795.38
2017-10-16T11:35:11.190Z,100790.77
2017-10-16T11:38:13.068Z,100792.30
2017-10-16T11:41:15.387Z,100793.42
2017-10-16T11:44:16.926Z,100794.08
2017-10-16T11:47:18.427Z,100789.22
2017-10-16T11:50:19.940Z,100788.75
2017-10-16T11:53:21.543Z,100790.48
2017-10-16T11:56:23.060Z,100789.94
2017-10-16T11:59:24.556Z,100781.67
2017-10-16T12:02:26.135Z,100777.46
2017-10-16T12:05:27.638Z,100770.91
2017-10-16T12:08:29.206Z,100775.70
2017-10-16T12:11:30.704Z,100766.66
2017-10-16T12:14:32.947Z,100766.88
2017-10-16T12:17:35.264Z,100768.22
2017-10-16T12:20:36.787Z,100768.11
2017-10-16T12:23:38.331Z,100763.28
2017-10-16T12:26:40.677Z,100766.11
2017-10-16T12:29:42.165Z,100763.70
2017-10-16T12:32:43.723Z,100759.16
2017-10-16T12:35:45.175Z,100751.80
2017-10-16T12:38:46.676Z,100754.05
2017-10-16T12:41:48.083Z,100750.19
2017-10-16T12:44:50.285Z,100752.41
2017-10-16T12:47:52.198Z,100750.50
2017-10-16T12:50:53.659Z,100742.41
2017-10-16T12:53:56.204Z,100749.70
2017-10-16T12:56:57.655Z,100737.44
2017-10-16T12:59:59.272Z,100740.90
2017-10-16T13:03:01.592Z,100735.63
2017-10-16T13:06:03.090Z,100735.09
2017-10-16T13:09:05.326Z,100728.59
2017-10-16T13:12:06.800Z,100738.09
2017-10-16T13:15:08.241Z,100726.08
2017-10-16T13:18:09.867Z,100727.67
2017-10-16T13:21:11.405Z,100725.58
2017-10-16T13:24:12.950Z,100728.42
2017-10-16T13:27:14.406Z,100719.08
2017-10-16T13:30:15.900Z,100717.00
2017-10-16T13:33:17.360Z,100707.70
2017-10-16T13:36:18.964Z,100710.75
2017-10-16T13:39:20.425Z,100704.02
2017-10-16T13:42:21.931Z,100699.34
2017-10-16T13:45:23.357Z,100698.37
2017-10-16T13:48:24.879Z,100700.51
2017-10-16T13:51:27.131Z,100692.28
2017-10-16T13:54:28.685Z,100693.27
2017-10-16T13:57:30.979Z,100687.53
2017-10-16T14:00:32.523Z,100683.47
2017-10-16T14:03:34.033Z,100688.28
2017-10-16T14:06:35.451Z,100689.05
2017-10-16T14:09:36.937Z,100690.77
2017-10-16T14:12:38.453Z,100682.02
2017-10-16T14:15:39.968Z,100675.75
2017-10-16T14:18:41.584Z,100679.77
2017-10-16T14:21:43.099Z,100670.50
2017-10-16T14:24:44.592Z,100671.63
2017-10-16T14:27:46.870Z,100670.66
2017-10-16T14:30:48.495Z,100669.64
2017-10-16T14:33:50.038Z,100671.27
2017-10-16T14:36:51.615Z,100671.37
2017-10-16T14:39:53.224Z,100668.16
2017-10-16T14:42:55.676Z,100658.41
2017-10-16T14:45:57.269Z,100658.94
2017-10-16T14:48:58.859Z,100659.78
2017-10-16T14:52:00.415Z,100660.55
2017-10-16T14:55:02.741Z,100664.81
2017-10-16T14:58:04.255Z,100670.66
2017-10-16T15:01:06.525Z,100669.72
2017-10-16T15:04:09.257Z,100663.95
2017-10-16T15:07:11.667Z,100668.34
2017-10-16T15:10:13.263Z,100661.84
2017-10-16T15:13:15.063Z,100658.25
2017-10-16T15:16:17.394Z,100650.61
2017-10-16T15:19:19.034Z,100634.11
2017-10-16T15:22:20.749Z,100639.97
2017-10-16T15:25:22.349Z,100651.51
2017-10-16T15:28:27.538Z,100645.67
2017-10-16T15:31:32.977Z,100641.70
2017-10-16T15:34:34.645Z,100639.77
2017-10-16T15:37:36.247Z,100640.14
2017-10-16T15:40:38.522Z,100638.87
2017-10-16T15:43:40.845Z,100628.65
2017-10-16T15:46:43.805Z,100630.13
2017-10-16T15:49:45.387Z,100631.13
2017-10-16T15:52:46.936Z,100618.77
2017-10-16T15:55:48.665Z,100617.41
2017-10-16T15:58:50.308Z,100622.59
2017-10-16T16:01:53.321Z,100612.41
2017-10-16T16:04:55.578Z,100611.49
2017-10-16T16:07:57.531Z,100616.53
2017-10-16T16:10:59.156Z,100611.52
2017-10-16T16:14:01.494Z,100614.07
2017-10-16T16:17:03.080Z,100622.95
2017-10-16T16:20:04.689Z,100616.28
2017-10-16T16:23:06.550Z,100630.70
2017-10-16T16:26:08.127Z,100631.41
2017-10-16T16:29:09.808Z,100632.20
2017-10-16T16:32:11.594Z,100625.55
2017-10-16T16:35:14.368Z,100626.00
2017-10-16T16:38:16.462Z,100632.72
2017-10-16T16:41:18.889Z,100638.30
2017-10-16T16:44:20.456Z,100627.03
2017-10-16T16:47:22.091Z,100619.90
2017-10-16T16:50:23.653Z,100626.55
2017-10-16T16:53:25.964Z,100618.55
2017-10-16T16:56:27.486Z,100624.08
2017-10-16T16:59:29.140Z,100619.63
2017-10-16T17:02:30.609Z,100621.44
2017-10-16T17:05:32.225Z,100626.11
2017-10-16T17:08:33.954Z,100633.61
2017-10-16T17:11:35.567Z,100638.70
2017-10-16T17:14:37.122Z,100633.26
2017-10-16T17:17:38.863Z,100632.05
2017-10-16T17:20:40.580Z,100613.89
2017-10-16T17:23:42.990Z,100629.87
2017-10-16T17:26:44.803Z,100617.94
2017-10-16T17:29:46.458Z,100627.27
2017-10-16T17:32:48.109Z,100621.38
2017-10-16T17:35:49.858Z,100618.46
2017-10-16T17:38:51.638Z,100608.75
2017-10-16T17:41:53.325Z,100607.35
2017-10-16T17:44:54.998Z,100611.80
2017-10-16T17:47:56.685Z,100612.76
2017-10-16T17:50:58.305Z,100612.27
2017-10-16T17:53:59.977Z,100608.27
2017-10-16T17:57:01.728Z,100611.97
2017-10-16T18:00:03.459Z,100610.66
2017-10-16T18:03:05.086Z,100615.45
2017-10-16T18:06:07.683Z,100610.97
2017-10-16T18:09:09.362Z,100611.19
2017-10-16T18:12:12.302Z,100615.59
2017-10-16T18:15:14.011Z,100604.31
2017-10-16T18:18:16.536Z,100600.05
2017-10-16T18:21:18.219Z,100613.45
2017-10-16T18:24:20.061Z,100598.12
2017-10-16T18:27:22.291Z,100601.83
2017-10-16T18:30:24.742Z,100603.45
2017-10-16T18:33:27.204Z,100607.84
2017-10-16T18:36:28.878Z,100607.97
2017-10-16T18:39:31.713Z,100602.39
2017-10-16T18:42:33.419Z,100597.59
2017-10-16T18:45:36.217Z,100592.47
2017-10-16T18:48:37.886Z,100589.73
2017-10-16T18:51:39.604Z,100587.72
2017-10-16T18:54:41.593Z,100586.69
2017-10-16T18:57:44.073Z,100598.22
2017-10-16T19:00:47.313Z,100592.99
2017-10-16T19:03:50.055Z,100592.08
2017-10-16T19:06:52.515Z,100595.95
2017-10-16T19:09:54.975Z,100595.90
2017-10-16T19:12:56.664Z,100578.47
2017-10-16T19:15:59.005Z,100594.13
2017-10-16T19:19:00.640Z,100598.23
2017-10-16T19:22:02.316Z,100602.17
2017-10-16T19:25:04.126Z,100610.31
2017-10-16T19:28:05.880Z,100608.87
2017-10-16T19:31:10.397Z,100615.78
2017-10-16T19:34:12.768Z,100618.95
2017-10-16T19:37:15.274Z,100627.78
2017-10-16T19:40:16.924Z,100616.52
2017-10-16T19:43:18.580Z,100623.50
2017-10-16T19:46:21.003Z,100612.67
2017-10-16T19:49:22.735Z,100614.77
2017-10-16T19:52:24.418Z,100616.61
2017-10-16T19:55:26.137Z,100624.39
2017-10-16T19:58:29.666Z,100613.67
2017-10-16T20:01:31.396Z,100610.72
2017-10-16T20:04:34.424Z,100611.45
2017-10-16T20:07:37.027Z,100606.34
2017-10-16T20:10:38.798Z,100601.17
2017-10-16T20:13:41.296Z,100608.44
2017-10-16T20:16:42.952Z,100617.34
2017-10-16T20:19:44.756Z,100617.53
2017-10-16T20:22:46.426Z,100620.54
2017-10-16T20:25:48.774Z,100618.91
2017-10-16T20:28:50.480Z,100624.46
2017-10-16T20:31:52.976Z,100633.97
2017-10-16T20:34:54.801Z,100625.88
2017-10-16T20:37:56.501Z,100633.92
2017-10-16T20:40:59.081Z,100639.39
2017-10-16T20:44:01.450Z,100636.60
2017-10-16T20:47:04.803Z,100651.59
2017-10-16T20:50:06.494Z,100645.67
2017-10-16T20:53:08.221Z,100649.58
2017-10-16T20:56:10.157Z,100645.80
2017-10-16T20:59:11.946Z,100652.73
2017-10-16T21:02:14.212Z,100642.09
2017-10-16T21:05:16.582Z,100644.22
2017-10-16T21:08:18.391Z,100651.13
2017-10-16T21:11:20.169Z,100652.41
2017-10-16T21:14:22.519Z,100656.73
2017-10-16T21:17:24.819Z,100653.79
2017-10-16T21:20:27.999Z,100652.91
2017-10-16T21:23:31.664Z,100648.06
2017-10-16T21:31:40.095Z,100646.03
2017-10-16T21:34:41.775Z,100641.06
2017-10-16T21:37:45.576Z,100644.49
2017-10-16T21:40:47.903Z,100651.17
2017-10-16T21:43:50.273Z,100645.51
2017-10-16T21:46:53.220Z,100644.20
2017-10-16T21:49:55.074Z,100642.27
2017-10-16T21:52:56.771Z,100637.72
2017-10-16T21:55:59.205Z,100641.02
2017-10-16T21:59:00.999Z,100635.86
2017-10-16T22:02:02.698Z,100633.03
2017-10-16T22:05:04.581Z,100636.50
2017-10-16T22:08:06.304Z,100630.78
2017-10-16T22:11:08.755Z,100632.58
2017-10-16T22:14:10.503Z,100638.38
2017-10-16T22:17:12.231Z,100626.80
2017-10-16T22:20:13.817Z,100635.31
2017-10-16T22:23:16.154Z,100636.48
2017-10-16T22:26:18.791Z,100639.27
2017-10-16T22:29:20.487Z,100636.20
2017-10-16T22:32:23.192Z,100644.09
2017-10-16T22:35:24.971Z,100642.25
2017-10-16T22:38:27.397Z,100629.08
2017-10-16T22:41:29.105Z,100637.32
2017-10-16T22:44:31.392Z,100631.95
2017-10-16T22:47:33.646Z,100636.26
2017-10-16T22:50:35.253Z,100625.17
2017-10-16T22:53:36.887Z,100635.86
2017-10-16T22:56:39.391Z,100639.61
2017-10-16T22:59:41.056Z,100636.08
2017-10-16T23:02:42.802Z,100639.06
2017-10-16T23:05:44.557Z,100633.61
2017-10-16T23:08:46.971Z,100642.23
2017-10-16T23:11:48.700Z,100645.02
2017-10-16T23:14:50.431Z,100645.22
2017-10-16T23:17:53.612Z,100645.70
2017-10-16T23:20:55.964Z,100646.50
2017-10-16T23:23:57.766Z,100640.54
2017-10-16T23:27:00.085Z,100645.84
2017-10-16T23:30:02.472Z,100643.34
2017-10-16T23:33:04.154Z,100639.67
2017-10-16T23:36:05.877Z,100640.16
2017-10-16T23:39:07.533Z,100646.55
2017-10-16T23:42:09.300Z,100651.52
2017-10-16T23:45:11.015Z,100633.89
2017-10-16T23:48:13.382Z,100639.09
2017-10-16T23:51:15.773Z,100642.84
2017-10-16T23:54:17.392Z,100639.30
2017-10-16T23:57:18.965Z,100640.37
